createdAt,value
2019-05-05T00:01:57.656Z,99.90
2019-05-05T00:05:01.847Z,99.90
2019-05-05T00:07:34.792Z,99.90
2019-05-05T00:10:15.535Z,99.90
2019-05-05T00:12:58.520Z,99.90
2019-05-05T00:15:46.029Z,99.90
2019-05-05T00:18:17.346Z,99.90
2019-05-05T00:20:47.292Z,99.90
2019-05-05T00:23:17.238Z,99.90
2019-05-05T00:25:47.069Z,99.90
2019-05-05T00:28:16.943Z,99.90
2019-05-05T00:30:46.798Z,99.90
2019-05-05T00:33:16.645Z,99.90
2019-05-05T00:35:46.584Z,99.90
2019-05-05T00:38:16.595Z,99.90
2019-05-05T00:40:46.659Z,99.90
2019-05-05T00:43:16.479Z,99.90
2019-05-05T00:45:47.924Z,99.90
2019-05-05T00:48:25.833Z,99.90
2019-05-05T00:50:55.931Z,99.90
2019-05-05T00:53:26.202Z,99.90
2019-05-05T00:55:56.539Z,99.90
2019-05-05T00:58:27.976Z,99.90
2019-05-05T01:01:09.601Z,99.90
2019-05-05T01:03:41.676Z,99.90
2019-05-05T01:06:19.678Z,99.90
2019-05-05T01:08:50.075Z,99.90
2019-05-05T01:11:20.906Z,99.90
2019-05-05T01:13:51.038Z,99.90
2019-05-05T01:16:21.163Z,99.90
2019-05-05T01:18:51.426Z,99.90
2019-05-05T01:21:21.653Z,99.90
2019-05-05T01:23:51.804Z,99.90
2019-05-05T01:26:24.604Z,99.90
2019-05-05T01:28:56.314Z,99.90
2019-05-05T01:31:26.582Z,99.90
2019-05-05T01:34:11.396Z,99.90
2019-05-05T01:36:41.720Z,99.90
2019-05-05T01:39:40.512Z,99.90
2019-05-05T01:42:15.245Z,99.90
2019-05-05T01:44:45.462Z,99.90
2019-05-05T01:47:21.557Z,99.90
2019-05-05T01:49:51.843Z,99.90
2019-05-05T01:52:22.016Z,99.90
2019-05-05T01:54:52.271Z,99.90
2019-05-05T01:57:22.612Z,99.90
2019-05-05T01:59:52.833Z,99.90
2019-05-05T02:02:24.939Z,99.90
2019-05-05T02:04:55.487Z,99.90
2019-05-05T02:07:25.856Z,99.90
2019-05-05T02:09:56.283Z,99.90
2019-05-05T02:12:26.583Z,99.90
2019-05-05T02:14:56.784Z,99.90
2019-05-05T02:17:26.705Z,99.90
2019-05-05T02:19:56.534Z,99.90
2019-05-05T02:22:26.471Z,99.90
2019-05-05T02:24:56.346Z,99.90
2019-05-05T02:27:26.356Z,99.90
2019-05-05T02:30:16.241Z,99.90
2019-05-05T02:32:55.168Z,99.90
2019-05-05T02:35:25.784Z,99.90
2019-05-05T02:37:56.078Z,99.90
2019-05-05T02:40:26.121Z,99.90
2019-05-05T02:42:57.268Z,99.90
2019-05-05T02:45:56.180Z,99.90
2019-05-05T02:48:27.296Z,99.90
2019-05-05T02:51:02.100Z,99.90
2019-05-05T02:53:39.792Z,99.90
2019-05-05T02:56:19.191Z,99.90
2019-05-05T02:58:53.651Z,99.90
2019-05-05T03:01:53.880Z,99.90
2019-05-05T03:04:25.031Z,99.90
2019-05-05T03:06:57.269Z,99.90
2019-05-05T03:09:29.874Z,99.90
2019-05-05T03:12:04.603Z,99.90
2019-05-05T03:14:36.817Z,99.90
2019-05-05T03:17:14.116Z,99.90
2019-05-05T03:19:45.204Z,99.90
2019-05-05T03:22:15.555Z,99.90
2019-05-05T03:24:46.388Z,99.90
2019-05-05T03:27:16.616Z,99.90
2019-05-05T03:29:47.288Z,99.90
2019-05-05T03:32:17.568Z,99.90
2019-05-05T03:34:48.115Z,99.90
2019-05-05T03:37:18.672Z,99.90
2019-05-05T03:39:54.092Z,99.90
2019-05-05T03:42:33.873Z,99.90
2019-05-05T03:45:14.663Z,99.90
2019-05-05T03:47:46.451Z,99.90
2019-05-05T03:50:16.480Z,99.90
2019-05-05T03:52:47.195Z,99.90
2019-05-05T03:55:17.336Z,99.90
2019-05-05T03:57:47.328Z,99.90
2019-05-05T04:00:37.977Z,99.90
2019-05-05T04:03:09.659Z,99.90
2019-05-05T04:05:51.150Z,99.90
2019-05-05T04:08:23.490Z,99.90
2019-05-05T04:10:54.861Z,99.90
2019-05-05T04:13:26.471Z,99.90
2019-05-05T04:16:14.571Z,99.90
2019-05-05T04:18:54.207Z,99.90
2019-05-05T04:21:44.904Z,99.90
2019-05-05T04:24:17.072Z,99.90
2019-05-05T04:26:47.229Z,99.90
2019-05-05T04:29:17.102Z,99.90
2019-05-05T04:31:46.946Z,99.90
2019-05-05T04:34:16.786Z,99.90
2019-05-05T04:36:46.699Z,99.90
2019-05-05T04:39:16.561Z,99.90
2019-05-05T04:41:46.517Z,99.90
2019-05-05T04:44:17.967Z,99.90
2019-05-05T04:46:49.683Z,99.90
2019-05-05T04:49:28.767Z,99.90
2019-05-05T04:51:59.728Z,99.90
2019-05-05T04:54:38.278Z,99.90
2019-05-05T04:57:09.165Z,99.90
2019-05-05T04:59:39.007Z,99.90
2019-05-05T05:02:19.232Z,99.90
2019-05-05T05:04:56.469Z,99.90
2019-05-05T05:07:26.671Z,99.90
2019-05-05T05:09:56.531Z,99.90
2019-05-05T05:12:26.563Z,99.90
2019-05-05T05:14:56.438Z,99.90
2019-05-05T05:17:34.434Z,99.90
2019-05-05T05:20:04.992Z,99.90
2019-05-05T05:22:35.392Z,99.90
2019-05-05T05:25:05.558Z,99.90
2019-05-05T05:27:36.201Z,99.90
2019-05-05T05:30:06.932Z,99.90
2019-05-05T05:32:39.755Z,99.90
2019-05-05T05:35:09.350Z,99.90
2019-05-05T05:37:39.720Z,99.90
2019-05-05T05:40:19.354Z,99.90
2019-05-05T05:42:49.840Z,99.90
2019-05-05T05:45:30.127Z,99.90
2019-05-05T05:48:23.711Z,99.90
2019-05-05T05:51:04.216Z,99.90
2019-05-05T05:53:35.004Z,99.90
2019-05-05T05:56:05.294Z,99.90
2019-05-05T05:58:35.773Z,99.90
2019-05-05T06:01:06.225Z,99.90
2019-05-05T06:03:36.489Z,99.90
2019-05-05T06:06:06.822Z,99.90
2019-05-05T06:08:37.215Z,99.90
2019-05-05T06:11:07.585Z,99.90
2019-05-05T06:13:37.905Z,99.90
2019-05-05T06:16:08.007Z,99.90
2019-05-05T06:18:37.992Z,99.90
2019-05-05T06:21:08.005Z,99.90
2019-05-05T06:23:38.060Z,99.90
2019-05-05T06:26:08.087Z,99.90
2019-05-05T06:28:38.930Z,99.90
2019-05-05T06:31:08.939Z,99.90
2019-05-05T06:33:38.888Z,99.90
2019-05-05T06:36:08.795Z,99.90
2019-05-05T06:38:38.815Z,99.90
2019-05-05T06:41:30.520Z,99.90
2019-05-05T06:44:19.375Z,99.90
2019-05-05T06:47:17.491Z,99.90
2019-05-05T06:49:47.496Z,99.90
2019-05-05T06:52:17.435Z,99.90
2019-05-05T06:54:47.364Z,99.90
2019-05-05T06:57:17.302Z,99.90
2019-05-05T06:59:47.268Z,99.90
2019-05-05T07:02:17.337Z,99.90
2019-05-05T07:04:47.379Z,99.90
2019-05-05T07:07:17.679Z,99.90
2019-05-05T07:09:47.875Z,99.90
2019-05-05T07:12:18.174Z,99.90
2019-05-05T07:14:48.486Z,99.90
2019-05-05T07:17:18.999Z,99.90
2019-05-05T07:19:49.219Z,99.90
2019-05-05T07:22:19.572Z,99.90
2019-05-05T07:24:50.284Z,99.90
2019-05-05T07:27:24.286Z,99.90
2019-05-05T07:29:55.153Z,99.90
2019-05-05T07:32:25.191Z,99.90
2019-05-05T07:35:05.796Z,99.90
2019-05-05T07:37:35.764Z,99.90
2019-05-05T07:40:07.781Z,99.90
2019-05-05T07:42:38.108Z,99.90
2019-05-05T07:45:20.249Z,99.90
2019-05-05T07:47:40.998Z,99.90
2019-05-05T07:50:25.530Z,99.90
2019-05-05T07:52:43.949Z,99.90
2019-05-05T07:55:14.414Z,99.90
2019-05-05T07:57:44.868Z,99.90
2019-05-05T08:00:15.923Z,99.90
2019-05-05T08:02:46.319Z,99.90
2019-05-05T08:05:17.934Z,99.90
2019-05-05T08:07:48.363Z,99.90
2019-05-05T08:10:18.552Z,99.90
2019-05-05T08:12:48.755Z,99.90
2019-05-05T08:15:21.219Z,99.90
2019-05-05T08:18:24.191Z,99.90
2019-05-05T08:20:57.124Z,99.90
2019-05-05T08:23:44.561Z,99.90
2019-05-05T08:26:24.097Z,99.90
2019-05-05T08:28:59.374Z,99.90
2019-05-05T08:31:50.613Z,99.90
2019-05-05T08:34:20.734Z,99.90
2019-05-05T08:36:51.072Z,99.90
2019-05-05T08:39:24.295Z,99.90
2019-05-05T08:41:54.223Z,99.90
2019-05-05T08:44:24.529Z,99.90
2019-05-05T08:46:54.851Z,99.90
2019-05-05T08:49:25.095Z,99.90
2019-05-05T08:51:56.392Z,99.90
2019-05-05T08:54:26.715Z,99.90
2019-05-05T08:56:58.095Z,99.90
2019-05-05T08:59:28.640Z,99.90
2019-05-05T09:01:58.844Z,99.90
2019-05-05T09:04:29.192Z,99.90
2019-05-05T09:07:00.352Z,99.90
2019-05-05T09:09:30.684Z,99.90
2019-05-05T09:12:01.199Z,99.90
2019-05-05T09:14:31.455Z,99.90
2019-05-05T09:17:04.244Z,99.90
2019-05-05T09:19:34.488Z,99.90
2019-05-05T09:22:08.526Z,99.90
2019-05-05T09:24:55.791Z,99.90
2019-05-05T09:27:34.110Z,99.90
2019-05-05T09:30:05.344Z,99.90
2019-05-05T09:32:35.494Z,99.90
2019-05-05T09:35:06.117Z,99.90
2019-05-05T09:37:37.416Z,99.90
2019-05-05T09:40:08.243Z,99.90
2019-05-05T09:42:38.410Z,99.90
2019-05-05T09:45:09.348Z,99.90
2019-05-05T09:47:40.736Z,99.90
2019-05-05T09:50:11.330Z,99.90
2019-05-05T09:52:41.863Z,99.90
2019-05-05T09:55:13.819Z,99.90
2019-05-05T09:57:44.268Z,99.90
2019-05-05T10:00:14.992Z,99.90
2019-05-05T10:02:44.999Z,99.90
2019-05-05T10:05:15.811Z,99.90
2019-05-05T10:07:45.903Z,99.90
2019-05-05T10:10:16.588Z,99.90
2019-05-05T10:12:46.801Z,99.90
2019-05-05T10:15:17.637Z,99.90
2019-05-05T10:17:47.584Z,99.90
2019-05-05T10:20:18.442Z,99.90
2019-05-05T10:22:48.736Z,99.90
2019-05-05T10:25:50.841Z,99.90
2019-05-05T10:28:21.053Z,99.90
2019-05-05T10:30:51.060Z,99.90
2019-05-05T10:33:21.035Z,99.90
2019-05-05T10:35:51.024Z,99.90
2019-05-05T10:38:21.118Z,99.90
2019-05-05T10:40:51.096Z,99.90
2019-05-05T10:43:21.080Z,99.90
2019-05-05T10:45:51.100Z,99.90
2019-05-05T10:48:21.112Z,99.90
2019-05-05T10:50:53.600Z,99.90
2019-05-05T10:53:23.259Z,99.90
2019-05-05T10:55:53.956Z,99.90
2019-05-05T10:58:24.432Z,99.90
2019-05-05T11:00:59.434Z,99.90
2019-05-05T11:03:29.562Z,99.90
2019-05-05T11:05:59.962Z,99.90
2019-05-05T11:08:30.940Z,99.90
2019-05-05T11:11:01.387Z,99.90
2019-05-05T11:13:31.380Z,99.90
2019-05-05T11:16:01.487Z,99.90
2019-05-05T11:18:34.469Z,99.90
2019-05-05T11:21:04.858Z,99.90
2019-05-05T11:23:54.148Z,99.90
2019-05-05T11:26:24.705Z,99.80
2019-05-05T11:28:54.856Z,99.90
2019-05-05T11:31:24.888Z,99.90
2019-05-05T11:34:01.203Z,99.90
2019-05-05T11:36:50.959Z,99.90
2019-05-05T11:39:20.912Z,99.90
2019-05-05T11:41:50.883Z,99.90
2019-05-05T11:44:20.979Z,99.90
2019-05-05T11:46:50.997Z,99.90
2019-05-05T11:49:21.047Z,99.90
2019-05-05T11:51:50.983Z,99.90
2019-05-05T11:54:21.034Z,99.90
2019-05-05T11:56:50.996Z,99.90
2019-05-05T11:59:20.951Z,99.90
2019-05-05T12:01:50.892Z,99.90
2019-05-05T12:04:20.913Z,94.10
2019-05-05T12:06:50.997Z,99.90
2019-05-05T12:09:48.969Z,95.90
2019-05-05T12:12:18.883Z,93.60
2019-05-05T12:14:49.560Z,90.50
2019-05-05T12:17:34.799Z,92.70
2019-05-05T12:20:06.652Z,91.00
2019-05-05T12:22:36.732Z,92.30
2019-05-05T12:25:28.438Z,92.80
2019-05-05T12:28:07.853Z,87.00
2019-05-05T12:30:38.814Z,90.50
2019-05-05T12:33:08.867Z,85.60
2019-05-05T12:35:39.013Z,88.40
2019-05-05T12:38:09.094Z,86.00
2019-05-05T12:40:39.049Z,84.50
2019-05-05T12:43:09.033Z,88.70
2019-05-05T12:45:41.000Z,96.30
2019-05-05T12:48:18.868Z,81.70
2019-05-05T12:50:48.803Z,88.50
2019-05-05T12:53:18.804Z,85.60
2019-05-05T12:55:48.837Z,90.20
2019-05-05T12:58:19.847Z,88.40
2019-05-05T13:01:05.951Z,94.40
2019-05-05T13:03:35.963Z,95.20
2019-05-05T13:06:06.111Z,90.50
2019-05-05T13:08:36.173Z,90.40
2019-05-05T13:11:06.369Z,86.50
2019-05-05T13:13:36.265Z,82.60
2019-05-05T13:16:06.308Z,85.20
2019-05-05T13:18:36.448Z,82.20
2019-05-05T13:21:13.194Z,81.20
2019-05-05T13:23:58.675Z,81.70
2019-05-05T13:26:48.359Z,86.10
2019-05-05T13:29:18.500Z,87.90
2019-05-05T13:31:49.024Z,88.90
2019-05-05T13:34:18.964Z,85.40
2019-05-05T13:36:48.995Z,90.20
2019-05-05T13:39:18.980Z,86.70
2019-05-05T13:41:48.946Z,87.70
2019-05-05T13:44:40.486Z,83.90
2019-05-05T13:47:10.572Z,86.10
2019-05-05T13:49:43.568Z,89.00
2019-05-05T13:52:13.883Z,80.70
2019-05-05T13:54:44.223Z,85.30
2019-05-05T13:57:14.505Z,89.90
2019-05-05T13:59:44.588Z,90.10
2019-05-05T14:02:16.206Z,92.50
2019-05-05T14:04:46.179Z,93.50
2019-05-05T14:07:16.417Z,98.10
2019-05-05T14:09:46.348Z,94.90
2019-05-05T14:12:16.409Z,93.10
2019-05-05T14:14:46.395Z,96.30
2019-05-05T14:17:16.331Z,95.00
2019-05-05T14:20:00.931Z,92.40
2019-05-05T14:22:18.967Z,91.90
2019-05-05T14:25:24.239Z,88.80
2019-05-05T14:27:55.559Z,89.10
2019-05-05T14:30:35.682Z,92.40
2019-05-05T14:33:07.349Z,92.40
2019-05-05T14:35:59.080Z,95.10
2019-05-05T14:38:37.624Z,95.00
2019-05-05T14:41:07.817Z,92.60
2019-05-05T14:43:37.783Z,91.20
2019-05-05T14:46:07.929Z,92.40
2019-05-05T14:48:38.115Z,93.20
2019-05-05T14:51:08.019Z,92.10
2019-05-05T14:53:37.932Z,95.40
2019-05-05T14:56:07.964Z,95.60
2019-05-05T14:58:37.991Z,94.60
2019-05-05T15:01:08.293Z,94.80
2019-05-05T15:03:38.230Z,94.80
2019-05-05T15:06:15.384Z,98.60
2019-05-05T15:09:07.872Z,91.50
2019-05-05T15:11:53.827Z,89.00
2019-05-05T15:14:24.367Z,90.50
2019-05-05T15:16:54.493Z,88.10
2019-05-05T15:19:24.511Z,91.20
2019-05-05T15:21:54.504Z,89.40
2019-05-05T15:24:24.618Z,92.60
2019-05-05T15:26:55.177Z,88.10
2019-05-05T15:29:27.444Z,84.40
2019-05-05T15:31:57.142Z,79.40
2019-05-05T15:34:27.221Z,72.70
2019-05-05T15:36:58.255Z,77.70
2019-05-05T15:39:28.604Z,77.80
2019-05-05T15:41:58.538Z,73.70
2019-05-05T15:44:28.489Z,74.90
2019-05-05T15:46:58.450Z,74.50
2019-05-05T15:49:28.433Z,68.30
2019-05-05T15:51:58.372Z,65.00
2019-05-05T15:54:28.799Z,66.70
2019-05-05T15:57:05.384Z,67.60
2019-05-05T15:59:31.427Z,70.60
2019-05-05T16:02:01.835Z,73.00
2019-05-05T16:04:31.792Z,68.20
2019-05-05T16:07:04.531Z,68.80
2019-05-05T16:09:46.831Z,70.30
2019-05-05T16:12:17.315Z,75.60
2019-05-05T16:14:58.909Z,77.20
2019-05-05T16:17:39.340Z,79.70
2019-05-05T16:20:16.352Z,79.60
2019-05-05T16:22:54.579Z,78.80
2019-05-05T16:25:24.520Z,83.90
2019-05-05T16:27:54.867Z,83.10
2019-05-05T16:30:24.908Z,84.30
2019-05-05T16:32:55.196Z,89.00
2019-05-05T16:35:25.344Z,84.20
2019-05-05T16:37:55.754Z,88.50
2019-05-05T16:40:25.989Z,88.30
2019-05-05T16:42:55.900Z,90.60
2019-05-05T16:45:26.076Z,86.60
2019-05-05T16:47:56.160Z,87.00
2019-05-05T16:50:26.112Z,84.60
2019-05-05T16:53:03.981Z,81.10
2019-05-05T16:55:51.512Z,83.00
2019-05-05T16:58:23.964Z,91.30
2019-05-05T17:00:54.406Z,90.30
2019-05-05T17:03:25.249Z,89.40
2019-05-05T17:05:57.887Z,91.40
2019-05-05T17:08:29.993Z,89.70
2019-05-05T17:11:00.960Z,92.30
2019-05-05T17:13:38.060Z,91.70
2019-05-05T17:16:45.257Z,90.30
2019-05-05T17:19:22.772Z,88.40
2019-05-05T17:22:12.382Z,88.80
2019-05-05T17:24:44.010Z,85.60
2019-05-05T17:27:15.738Z,82.20
2019-05-05T17:29:46.585Z,79.30
2019-05-05T17:32:16.613Z,83.70
2019-05-05T17:34:47.035Z,81.30
2019-05-05T17:37:18.521Z,83.10
2019-05-05T17:39:57.420Z,83.60
2019-05-05T17:42:53.597Z,83.70
2019-05-05T17:45:29.002Z,83.60
2019-05-05T17:48:09.460Z,87.90
2019-05-05T17:50:56.937Z,89.80
2019-05-05T17:53:34.415Z,88.80
2019-05-05T17:56:05.547Z,90.60
2019-05-05T17:58:35.695Z,90.20
2019-05-05T18:01:06.665Z,85.80
2019-05-05T18:03:36.713Z,86.40
2019-05-05T18:06:17.387Z,83.50
2019-05-05T18:08:50.549Z,81.20
2019-05-05T18:11:44.068Z,82.60
2019-05-05T18:14:18.744Z,80.50
2019-05-05T18:16:48.799Z,84.20
2019-05-05T18:19:18.790Z,82.60
2019-05-05T18:21:48.966Z,85.10
2019-05-05T18:24:18.999Z,88.00
2019-05-05T18:26:49.399Z,87.70
2019-05-05T18:29:19.624Z,86.80
2019-05-05T18:31:49.842Z,87.30
2019-05-05T18:34:20.135Z,88.50
2019-05-05T18:36:50.515Z,88.90
2019-05-05T18:39:20.880Z,86.50
2019-05-05T18:42:15.179Z,88.00
2019-05-05T18:44:47.803Z,90.80
2019-05-05T18:47:19.225Z,89.60
2019-05-05T18:49:49.722Z,91.80
2019-05-05T18:52:19.771Z,92.80
2019-05-05T18:54:49.840Z,90.40
2019-05-05T18:57:19.909Z,87.90
2019-05-05T18:59:49.875Z,90.20
2019-05-05T19:02:37.853Z,90.40
2019-05-05T19:05:19.711Z,90.30
2019-05-05T19:08:04.594Z,92.30
2019-05-05T19:10:34.748Z,92.30
2019-05-05T19:13:04.977Z,92.90
2019-05-05T19:15:35.176Z,93.10
2019-05-05T19:18:06.550Z,91.30
2019-05-05T19:20:46.499Z,91.90
2019-05-05T19:23:17.888Z,90.70
2019-05-05T19:25:47.902Z,90.60
2019-05-05T19:28:17.940Z,91.90
2019-05-05T19:30:48.344Z,92.60
2019-05-05T19:33:18.361Z,94.50
2019-05-05T19:35:48.492Z,96.00
2019-05-05T19:38:18.368Z,95.00
2019-05-05T19:40:48.309Z,97.20
2019-05-05T19:43:18.328Z,96.40
2019-05-05T19:45:48.164Z,97.80
2019-05-05T19:48:18.092Z,97.20
2019-05-05T19:50:57.705Z,98.80
2019-05-05T19:53:27.752Z,98.00
2019-05-05T19:55:58.336Z,93.60
2019-05-05T19:58:28.240Z,97.50
2019-05-05T20:01:04.603Z,97.30
2019-05-05T20:03:35.405Z,96.30
2019-05-05T20:06:05.644Z,95.70
2019-05-05T20:08:40.820Z,97.90
2019-05-05T20:11:07.180Z,98.50
2019-05-05T20:13:37.910Z,97.10
2019-05-05T20:16:34.147Z,98.30
2019-05-05T20:19:04.293Z,98.20
2019-05-05T20:21:34.657Z,98.60
2019-05-05T20:24:04.583Z,97.20
2019-05-05T20:26:34.824Z,99.90
2019-05-05T20:29:13.881Z,99.90
2019-05-05T20:31:37.522Z,99.90
2019-05-05T20:34:26.688Z,99.90
2019-05-05T20:37:15.727Z,99.90
2019-05-05T20:39:45.974Z,99.90
2019-05-05T20:42:16.127Z,99.90
2019-05-05T20:44:46.420Z,99.90
2019-05-05T20:47:16.547Z,99.90
2019-05-05T20:49:46.963Z,99.90
2019-05-05T20:52:17.116Z,99.90
2019-05-05T20:54:47.594Z,99.90
2019-05-05T20:57:18.212Z,99.90
2019-05-05T20:59:48.463Z,99.90
2019-05-05T21:02:18.834Z,99.90
2019-05-05T21:04:48.944Z,99.90
2019-05-05T21:07:25.855Z,99.90
2019-05-05T21:09:52.834Z,99.90
2019-05-05T21:12:39.155Z,99.90
2019-05-05T21:14:56.637Z,99.90
2019-05-05T21:17:26.609Z,99.90
2019-05-05T21:19:56.443Z,99.90
2019-05-05T21:22:41.776Z,99.90
2019-05-05T21:25:44.396Z,99.90
2019-05-05T21:28:14.678Z,99.90
2019-05-05T21:30:44.703Z,99.90
2019-05-05T21:33:14.537Z,99.90
2019-05-05T21:35:44.389Z,99.90
2019-05-05T21:38:14.357Z,99.90
2019-05-05T21:40:44.245Z,99.90
2019-05-05T21:43:15.325Z,99.90
2019-05-05T21:45:45.379Z,99.90
2019-05-05T21:48:15.275Z,99.90
2019-05-05T21:50:53.977Z,99.90
2019-05-05T21:53:30.689Z,99.90
2019-05-05T21:56:18.241Z,99.90
2019-05-05T21:58:48.188Z,99.90
2019-05-05T22:01:20.014Z,99.90
2019-05-05T22:03:49.860Z,99.90
2019-05-05T22:06:19.810Z,99.90
2019-05-05T22:08:49.795Z,99.90
2019-05-05T22:11:19.628Z,99.90
2019-05-05T22:13:49.563Z,99.90
2019-05-05T22:16:19.502Z,99.90
2019-05-05T22:18:49.372Z,99.90
2019-05-05T22:21:43.753Z,99.90
2019-05-05T22:24:16.150Z,99.90
2019-05-05T22:26:46.347Z,99.90
2019-05-05T22:29:16.909Z,99.90
2019-05-05T22:31:47.566Z,99.90
2019-05-05T22:34:17.611Z,99.90
2019-05-05T22:36:47.548Z,99.90
2019-05-05T22:39:17.509Z,99.90
2019-05-05T22:41:47.559Z,99.90
2019-05-05T22:44:17.397Z,99.90
2019-05-05T22:46:47.848Z,99.90
2019-05-05T22:49:17.956Z,99.90
2019-05-05T22:51:48.313Z,99.90
2019-05-05T22:54:18.568Z,99.90
2019-05-05T22:56:48.908Z,99.90
2019-05-05T22:59:19.081Z,99.90
2019-05-05T23:01:49.287Z,99.90
2019-05-05T23:04:29.436Z,99.90
2019-05-05T23:07:07.155Z,99.90
2019-05-05T23:09:37.377Z,99.90
2019-05-05T23:12:07.656Z,99.90
2019-05-05T23:14:38.222Z,99.90
2019-05-05T23:17:31.612Z,99.90
2019-05-05T23:20:17.075Z,99.90
2019-05-05T23:22:54.825Z,99.90
2019-05-05T23:25:30.524Z,99.90
2019-05-05T23:28:03.973Z,99.90
2019-05-05T23:30:41.436Z,99.90
2019-05-05T23:33:05.490Z,99.90
2019-05-05T23:35:35.644Z,99.90
2019-05-05T23:38:05.968Z,99.90
2019-05-05T23:40:36.144Z,99.90
2019-05-05T23:43:06.336Z,99.90
2019-05-05T23:45:36.588Z,99.90
2019-05-05T23:48:07.039Z,99.90
2019-05-05T23:50:37.254Z,99.90
2019-05-05T23:53:07.573Z,99.90
2019-05-05T23:55:37.932Z,99.90
2019-05-05T23:58:08.212Z,99.90
